Time;durP1;ratioP1;P1;durP2;ratioP2;P2;SDS_P1;SDS_P2;PMS_P1;PMS_P2;Temp;Humidity;BMP_temperature;BMP_pressure;BME280_temperature;BME280_humidity;BME280_pressure;Samples;Min_cycle;Max_cycle;Signal;HPM_P1;HPM_P2
2021/12/08 00:01:52;;;;;;;11.93;6.45;;;;;;;;;;4921235;29;20024;-90
2021/12/08 00:04:17;;;;;;;10.32;6.25;;;;;;;;;;4921634;29;20001;-89
2021/12/08 00:06:43;;;;;;;13.15;7.32;;;;;;;;;;4916185;29;20089;-87
2021/12/08 00:09:27;;;;;;;13.07;6.40;;;;;;;;;;4900973;29;20056;-88
2021/12/08 00:14:36;;;;;;;11.57;6.35;;;;;;;;;;4903445;29;20032;-86
2021/12/08 00:17:02;;;;;;;13.57;6.63;;;;;;;;;;4901953;29;20033;-87
2021/12/08 00:19:28;;;;;;;11.32;6.20;;;;;;;;;;4900357;29;20024;-88
2021/12/08 00:21:54;;;;;;;9.40;5.70;;;;;;;;;;4901905;29;20024;-90
2021/12/08 00:24:19;;;;;;;11.93;6.57;;;;;;;;;;4903378;29;20152;-85
2021/12/08 00:26:44;;;;;;;11.98;6.15;;;;;;;;;;4908108;29;20503;-86
2021/12/08 00:29:10;;;;;;;15.60;7.18;;;;;;;;;;4909180;29;20021;-86
2021/12/08 00:31:35;;;;;;;14.48;6.72;;;;;;;;;;4903563;29;20432;-87
2021/12/08 00:34:00;;;;;;;14.00;7.07;;;;;;;;;;4906322;29;20029;-88
2021/12/08 00:36:31;;;;;;;15.77;7.32;;;;;;;;;;4909092;29;20400;-89
2021/12/08 00:38:57;;;;;;;14.80;7.32;;;;;;;;;;4908094;29;20024;-84
2021/12/08 00:41:22;;;;;;;17.38;8.13;;;;;;;;;;4911305;29;20389;-89
2021/12/08 00:43:47;;;;;;;13.25;6.95;;;;;;;;;;4908301;29;20039;-88
2021/12/08 00:46:12;;;;;;;17.38;7.95;;;;;;;;;;4907804;29;20377;-87
2021/12/08 00:48:40;;;;;;;20.23;8.63;;;;;;;;;;4908909;29;20292;-89
2021/12/08 00:51:06;;;;;;;15.43;8.25;;;;;;;;;;4913244;29;20500;-89
2021/12/08 00:53:31;;;;;;;19.65;8.20;;;;;;;;;;4919563;29;20011;-90
2021/12/08 00:55:57;;;;;;;15.32;7.88;;;;;;;;;;4920790;29;20476;-90
2021/12/08 00:58:22;;;;;;;17.80;7.72;;;;;;;;;;4918718;29;20032;-89
2021/12/08 01:00:49;;;;;;;18.52;8.30;;;;;;;;;;4916565;29;20020;-86
2021/12/08 01:03:18;;;;;;;16.15;7.78;;;;;;;;;;4913888;29;20020;-85
2021/12/08 01:05:43;;;;;;;;;;;;;;;;;;4915965;29;20061;-85
2021/12/08 01:08:09;;;;;;;18.70;8.45;;;;;;;;;;4917384;29;19979;-86
2021/12/08 01:10:41;;;;;;;22.90;9.27;;;;;;;;;;4918823;29;20111;-88
2021/12/08 01:13:07;;;;;;;23.30;9.70;;;;;;;;;;4918407;29;20053;-87
2021/12/08 01:15:33;;;;;;;21.73;10.00;;;;;;;;;;4921072;29;20027;-86
2021/12/08 01:17:58;;;;;;;25.90;11.40;;;;;;;;;;4921577;29;20005;-87
2021/12/08 01:20:24;;;;;;;25.73;9.73;;;;;;;;;;4923200;29;20012;-89
2021/12/08 01:22:50;;;;;;;25.58;10.68;;;;;;;;;;4921739;29;20084;-89
2021/12/08 01:25:19;;;;;;;24.08;10.75;;;;;;;;;;4923018;29;20021;-88
2021/12/08 01:27:45;;;;;;;24.50;10.18;;;;;;;;;;4922416;29;20040;-90
2021/12/08 01:30:13;;;;;;;24.60;10.52;;;;;;;;;;4922322;29;20020;-87
2021/12/08 01:32:39;;;;;;;25.05;10.45;;;;;;;;;;4923300;29;20012;-89
2021/12/08 01:35:06;;;;;;;22.98;10.90;;;;;;;;;;4923275;29;20017;-88
2021/12/08 01:37:35;;;;;;;24.65;11.20;;;;;;;;;;4922769;29;20041;-90
2021/12/08 01:40:03;;;;;;;25.38;10.35;;;;;;;;;;4921646;29;20025;-89
2021/12/08 01:42:36;;;;;;;21.07;9.80;;;;;;;;;;4921968;29;20016;-88
2021/12/08 01:47:48;;;;;;;23.55;10.57;;;;;;;;;;4923903;29;20047;-88
2021/12/08 01:50:14;;;;;;;23.13;9.23;;;;;;;;;;5008107;23;20052;-88
2021/12/08 01:55:17;;;;;;;22.95;10.18;;;;;;;;;;5197399;23;20043;-88
2021/12/08 01:57:44;;;;;;;23.42;10.35;;;;;;;;;;4941416;28;20008;-89
2021/12/08 02:02:49;;;;;;;20.40;9.35;;;;;;;;;;5541252;23;20056;-88
2021/12/08 02:05:16;;;;;;;23.23;9.25;;;;;;;;;;4942115;28;20023;-89
2021/12/08 02:07:50;;;;;;;20.48;8.95;;;;;;;;;;4941155;28;20048;-89
2021/12/08 02:10:23;;;;;;;20.05;9.98;;;;;;;;;;4941815;28;20046;-88
2021/12/08 02:12:49;;;;;;;21.48;9.02;;;;;;;;;;4942033;28;20056;-86
2021/12/08 02:15:16;;;;;;;27.20;9.65;;;;;;;;;;4941120;28;20031;-89
2021/12/08 02:17:52;;;;;;;20.85;9.40;;;;;;;;;;4941639;28;20020;-88
2021/12/08 02:20:18;;;;;;;21.70;9.50;;;;;;;;;;4941522;28;20009;-89
2021/12/08 02:22:43;;;;;;;22.73;9.55;;;;;;;;;;4940459;28;20004;-89
2021/12/08 02:25:14;;;;;;;22.73;9.70;;;;;;;;;;4940171;29;20095;-90
2021/12/08 02:27:40;;;;;;;21.67;9.95;;;;;;;;;;4940631;29;20012;-89
2021/12/08 02:30:15;;;;;;;21.58;9.18;;;;;;;;;;4940504;28;20086;-90
2021/12/08 02:48:57;;;;;;;22.33;9.48;;;;;;;;;;4941580;28;20040;-88
2021/12/08 02:51:23;;;;;;;23.25;9.80;;;;;;;;;;4940683;28;20004;-90
2021/12/08 02:53:49;;;;;;;23.45;9.52;;;;;;;;;;4940764;29;20024;-89
2021/12/08 02:56:17;;;;;;;23.15;9.55;;;;;;;;;;4943409;28;20107;-90
2021/12/08 02:58:43;;;;;;;27.80;10.75;;;;;;;;;;4942442;29;20009;-86
2021/12/08 03:01:10;;;;;;;25.98;10.82;;;;;;;;;;4941859;29;20016;-89
2021/12/08 03:03:35;;;;;;;28.15;10.02;;;;;;;;;;4942390;29;20113;-87
2021/12/08 04:22:39;;;;;;;27.00;10.45;;;;;;;;;;4943924;23;20075;-83
2021/12/08 05:34:23;;;;;;;;;;;;;;;;;;;;;
2021/12/08 06:18:47;;;;;;;24.52;11.13;;;;;;;;;;5378391;23;20049;-83
2021/12/08 06:21:27;;;;;;;26.48;11.38;;;;;;;;;;4915391;29;20028;-84
2021/12/08 06:24:04;;;;;;;25.80;10.77;;;;;;;;;;4922175;29;20033;-84
2021/12/08 06:39:56;;;;;;;25.63;11.73;;;;;;;;;;5195373;23;20040;-83
2021/12/08 06:42:32;;;;;;;29.95;11.68;;;;;;;;;;4906175;29;20021;-83
2021/12/08 06:55:30;;;;;;;32.55;12.57;;;;;;;;;;5792530;23;20052;-85
2021/12/08 08:08:40;;;;;;;23.25;9.93;;;;;;;;;;5683943;23;20051;-83
2021/12/08 08:19:08;;;;;;;;;;;;;;;;;;;;;
2021/12/08 08:21:56;;;;;;;24.02;10.68;;;;;;;;;;4919116;29;20052;-84
2021/12/08 10:26:44;;;;;;;16.38;7.20;;;;;;;;;;5888951;23;20018;-84
2021/12/08 11:33:59;;;;;;;8.55;3.75;;;;;;;;;;5935317;23;20015;-85
2021/12/08 11:36:28;;;;;;;10.57;4.60;;;;;;;;;;5438048;23;20135;-87
2021/12/08 11:54:43;;;;;;;7.15;3.35;;;;;;;;;;5740474;23;20123;-86
